Time;durP1;ratioP1;P1;durP2;ratioP2;P2;SDS_P1;SDS_P2;PMS_P1;PMS_P2;Temp;Humidity;BMP_temperature;BMP_pressure;BME280_temperature;BME280_humidity;BME280_pressure;Samples;Min_cycle;Max_cycle;Signal;HPM_P1;HPM_P2
2023/08/02 00:01:07;;;;;;;1.08;1.08;;;;;;;;;;4993914;28;20659;-74
2023/08/02 00:03:34;;;;;;;0.80;0.80;;;;;;;;;;4994424;28;20203;-74
2023/08/02 00:06:01;;;;;;;1.00;1.00;;;;;;;;;;4994081;28;20202;-73
2023/08/02 00:08:28;;;;;;;0.73;0.73;;;;;;;;;;4994114;28;20231;-73
2023/08/02 00:10:55;;;;;;;0.90;0.90;;;;;;;;;;4994104;28;20213;-73
2023/08/02 00:13:22;;;;;;;0.82;0.82;;;;;;;;;;4994044;28;20210;-73
2023/08/02 00:15:49;;;;;;;0.82;0.82;;;;;;;;;;4994042;28;20225;-74
2023/08/02 00:18:18;;;;;;;0.90;0.90;;;;;;;;;;4993941;28;20206;-74
2023/08/02 00:20:45;;;;;;;0.95;0.95;;;;;;;;;;4993953;28;20202;-75
2023/08/02 00:23:12;;;;;;;0.88;0.88;;;;;;;;;;4994095;28;20265;-74
2023/08/02 00:25:39;;;;;;;0.88;0.88;;;;;;;;;;4994002;28;20199;-74
2023/08/02 00:28:06;;;;;;;0.75;0.75;;;;;;;;;;4993658;28;20663;-74
2023/08/02 00:30:33;;;;;;;0.77;0.77;;;;;;;;;;4993948;28;20577;-74
2023/08/02 00:33:00;;;;;;;0.80;0.80;;;;;;;;;;4993559;28;20682;-74
2023/08/02 00:35:29;;;;;;;0.80;0.80;;;;;;;;;;4993537;28;20223;-74
2023/08/02 00:37:56;;;;;;;0.80;0.80;;;;;;;;;;4993815;28;20199;-74
2023/08/02 00:40:25;;;;;;;0.90;0.90;;;;;;;;;;4993714;28;20226;-74
2023/08/02 00:42:52;;;;;;;0.90;0.90;;;;;;;;;;4993795;28;20203;-74
2023/08/02 00:45:20;;;;;;;0.80;0.80;;;;;;;;;;4993991;28;20210;-74
2023/08/02 00:47:47;;;;;;;0.85;0.85;;;;;;;;;;4993729;28;20207;-74
2023/08/02 00:50:14;;;;;;;0.90;0.90;;;;;;;;;;4996000;28;20223;-74
2023/08/02 00:52:42;;;;;;;1.10;1.10;;;;;;;;;;4999667;28;20229;-74
2023/08/02 00:55:09;;;;;;;0.90;0.90;;;;;;;;;;4995652;28;20233;-74
2023/08/02 00:57:37;;;;;;;0.90;0.90;;;;;;;;;;4994364;28;20206;-74
2023/08/02 01:00:04;;;;;;;0.90;0.90;;;;;;;;;;4997307;28;20230;-74
2023/08/02 01:02:31;;;;;;;0.70;0.70;;;;;;;;;;4996864;28;20222;-74
2023/08/02 01:04:58;;;;;;;0.93;0.93;;;;;;;;;;4997050;28;20202;-74
2023/08/02 01:07:29;;;;;;;0.90;0.90;;;;;;;;;;4997100;28;20202;-74
2023/08/02 01:10:01;;;;;;;0.93;0.93;;;;;;;;;;4997296;28;20218;-74
2023/08/02 01:12:29;;;;;;;0.93;0.93;;;;;;;;;;4996737;28;20191;-74
2023/08/02 01:14:57;;;;;;;0.90;0.90;;;;;;;;;;4996560;28;20226;-74
2023/08/02 01:17:25;;;;;;;0.75;0.75;;;;;;;;;;4996935;28;20206;-74
2023/08/02 01:19:52;;;;;;;0.95;0.95;;;;;;;;;;4997125;28;20223;-74
2023/08/02 01:22:21;;;;;;;1.05;1.05;;;;;;;;;;4997002;28;20202;-74
2023/08/02 01:24:48;;;;;;;0.73;0.73;;;;;;;;;;4996854;28;20199;-74
2023/08/02 01:27:16;;;;;;;1.00;1.00;;;;;;;;;;4996764;28;20253;-74
2023/08/02 01:29:46;;;;;;;0.90;0.90;;;;;;;;;;4996661;28;20236;-74
2023/08/02 01:32:13;;;;;;;0.98;0.98;;;;;;;;;;4996673;28;20203;-73
2023/08/02 01:34:41;;;;;;;1.48;1.35;;;;;;;;;;4996616;28;20226;-73
2023/08/02 01:37:08;;;;;;;1.15;1.15;;;;;;;;;;4996447;28;20671;-73
2023/08/02 01:39:36;;;;;;;1.02;1.02;;;;;;;;;;4996258;28;20735;-74
2023/08/02 01:42:03;;;;;;;0.85;0.85;;;;;;;;;;4996353;28;20206;-74
2023/08/02 01:44:30;;;;;;;1.02;1.02;;;;;;;;;;4996577;28;20214;-74
2023/08/02 01:46:57;;;;;;;0.85;0.85;;;;;;;;;;4996507;28;20215;-73
2023/08/02 01:49:24;;;;;;;0.95;0.95;;;;;;;;;;4996706;28;20222;-73
2023/08/02 01:51:51;;;;;;;1.20;1.20;;;;;;;;;;4996264;28;20214;-73
2023/08/02 01:54:18;;;;;;;1.10;1.10;;;;;;;;;;4996246;28;20202;-73
2023/08/02 01:56:47;;;;;;;1.08;1.08;;;;;;;;;;4996417;28;20206;-73
2023/08/02 01:59:14;;;;;;;1.02;1.02;;;;;;;;;;4995940;28;20226;-73
2023/08/02 02:01:41;;;;;;;1.15;1.15;;;;;;;;;;4995810;28;20670;-73
2023/08/02 02:04:08;;;;;;;1.20;1.20;;;;;;;;;;4996261;28;20218;-74
2023/08/02 02:06:35;;;;;;;1.02;1.02;;;;;;;;;;4996536;28;20265;-73
2023/08/02 02:09:02;;;;;;;1.10;1.10;;;;;;;;;;4996678;28;20229;-74
2023/08/02 02:11:30;;;;;;;1.00;1.00;;;;;;;;;;4996516;28;20203;-74
2023/08/02 02:13:58;;;;;;;0.73;0.73;;;;;;;;;;4996384;28;20210;-75
2023/08/02 02:16:25;;;;;;;1.00;1.00;;;;;;;;;;4996411;28;20229;-76
2023/08/02 02:18:52;;;;;;;0.93;0.93;;;;;;;;;;4996575;28;20570;-77
2023/08/02 02:21:19;;;;;;;1.05;1.05;;;;;;;;;;4999235;28;20662;-77
2023/08/02 02:23:46;;;;;;;1.20;1.20;;;;;;;;;;5000096;28;20203;-78
2023/08/02 02:26:13;;;;;;;0.80;0.80;;;;;;;;;;4999352;28;20198;-78
2023/08/02 02:28:40;;;;;;;0.98;0.98;;;;;;;;;;4999419;28;20234;-78
2023/08/02 02:31:09;;;;;;;0.82;0.82;;;;;;;;;;4998391;28;20202;-78
2023/08/02 02:33:36;;;;;;;0.77;0.77;;;;;;;;;;4998927;28;20202;-78
2023/08/02 02:36:04;;;;;;;1.00;1.00;;;;;;;;;;4996539;28;20229;-77
2023/08/02 02:38:31;;;;;;;0.90;0.90;;;;;;;;;;4995811;28;20234;-77
2023/08/02 02:40:58;;;;;;;0.93;0.93;;;;;;;;;;4995815;28;20227;-77
2023/08/02 02:43:25;;;;;;;0.90;0.90;;;;;;;;;;4996587;28;20214;-77
2023/08/02 02:45:52;;;;;;;1.17;1.17;;;;;;;;;;4995425;28;20203;-77
2023/08/02 02:48:21;;;;;;;0.95;0.95;;;;;;;;;;4995215;28;20203;-76
2023/08/02 02:50:48;;;;;;;1.00;1.00;;;;;;;;;;4995280;28;20205;-77
2023/08/02 02:53:16;;;;;;;1.00;1.00;;;;;;;;;;4996722;28;20216;-78
2023/08/02 02:55:43;;;;;;;0.80;0.80;;;;;;;;;;4997711;28;20218;-78
2023/08/02 02:58:10;;;;;;;0.90;0.90;;;;;;;;;;4998019;28;20203;-76
2023/08/02 03:00:37;;;;;;;0.77;0.77;;;;;;;;;;4994731;28;20567;-76
2023/08/02 03:03:05;;;;;;;1.10;1.10;;;;;;;;;;4994664;28;20198;-77
2023/08/02 03:05:33;;;;;;;1.10;0.70;;;;;;;;;;4995015;28;20222;-76
2023/08/02 03:08:00;;;;;;;1.17;1.17;;;;;;;;;;4994975;28;20558;-76
2023/08/02 03:10:27;;;;;;;1.10;1.10;;;;;;;;;;4994720;28;20230;-76
2023/08/02 03:12:54;;;;;;;1.02;1.02;;;;;;;;;;4994776;28;20206;-76
2023/08/02 03:15:21;;;;;;;0.98;0.98;;;;;;;;;;4994487;28;20585;-76
2023/08/02 03:17:48;;;;;;;0.90;0.90;;;;;;;;;;4994398;28;20214;-76
2023/08/02 03:20:15;;;;;;;0.88;0.88;;;;;;;;;;4994080;28;20222;-76
2023/08/02 03:22:44;;;;;;;0.90;0.90;;;;;;;;;;4995731;28;20206;-77
2023/08/02 03:25:11;;;;;;;0.90;0.90;;;;;;;;;;4996178;28;20194;-77
2023/08/02 03:27:39;;;;;;;0.98;0.98;;;;;;;;;;4996338;28;20210;-77
2023/08/02 03:30:07;;;;;;;1.00;1.00;;;;;;;;;;4994534;28;20226;-77
2023/08/02 03:32:34;;;;;;;1.00;1.00;;;;;;;;;;4994545;28;20226;-77
2023/08/02 03:35:01;;;;;;;0.98;0.98;;;;;;;;;;4994123;28;20578;-77
2023/08/02 03:37:28;;;;;;;0.82;0.82;;;;;;;;;;4994191;28;20579;-77
2023/08/02 03:39:56;;;;;;;0.82;0.82;;;;;;;;;;4994082;28;20710;-77
2023/08/02 03:42:23;;;;;;;0.90;0.90;;;;;;;;;;4994472;28;20210;-77
2023/08/02 03:44:50;;;;;;;0.80;0.80;;;;;;;;;;4994472;28;20286;-77
2023/08/02 03:47:18;;;;;;;0.85;0.85;;;;;;;;;;4994608;28;20198;-77
2023/08/02 03:49:45;;;;;;;1.05;1.05;;;;;;;;;;4994262;28;20277;-76
2023/08/02 03:52:12;;;;;;;1.00;1.00;;;;;;;;;;4994219;28;20217;-76
2023/08/02 03:54:39;;;;;;;0.90;0.90;;;;;;;;;;4994490;28;20214;-76
2023/08/02 03:57:08;;;;;;;1.00;1.00;;;;;;;;;;4994177;28;20590;-76
2023/08/02 03:59:35;;;;;;;1.30;0.90;;;;;;;;;;4994298;28;20233;-77
2023/08/02 04:02:02;;;;;;;1.02;1.02;;;;;;;;;;4994326;28;20203;-76
2023/08/02 04:04:29;;;;;;;1.00;1.00;;;;;;;;;;4994224;28;20212;-76
2023/08/02 04:06:56;;;;;;;1.08;0.73;;;;;;;;;;4994312;28;20206;-75
2023/08/02 04:09:23;;;;;;;0.88;0.88;;;;;;;;;;4993821;28;20593;-78
2023/08/02 04:11:50;;;;;;;0.90;0.90;;;;;;;;;;4994440;28;20203;-78
2023/08/02 04:14:19;;;;;;;1.10;1.10;;;;;;;;;;4994518;28;20214;-75
2023/08/02 04:16:46;;;;;;;1.00;1.00;;;;;;;;;;4993830;28;20219;-75
2023/08/02 04:19:13;;;;;;;1.00;1.00;;;;;;;;;;4993888;28;20241;-75
2023/08/02 04:21:40;;;;;;;0.80;0.80;;;;;;;;;;4993985;28;20207;-75
2023/08/02 04:24:07;;;;;;;0.90;0.90;;;;;;;;;;4993735;28;20666;-76
2023/08/02 04:26:34;;;;;;;0.70;0.70;;;;;;;;;;4995765;28;20214;-77
2023/08/02 04:29:01;;;;;;;1.02;1.02;;;;;;;;;;5000549;28;20218;-78
2023/08/02 04:31:29;;;;;;;0.82;0.82;;;;;;;;;;5004879;28;20659;-76
2023/08/02 04:33:57;;;;;;;0.93;0.90;;;;;;;;;;5000101;28;20673;-76
2023/08/02 04:36:24;;;;;;;0.82;0.82;;;;;;;;;;5000007;28;20225;-76
2023/08/02 04:38:53;;;;;;;1.02;1.02;;;;;;;;;;4997606;28;20682;-76
2023/08/02 04:41:20;;;;;;;1.30;1.30;;;;;;;;;;4997799;28;20266;-76
2023/08/02 04:43:47;;;;;;;0.95;0.95;;;;;;;;;;4997531;28;20202;-76
2023/08/02 04:46:14;;;;;;;1.00;1.00;;;;;;;;;;4997527;28;20255;-76
2023/08/02 04:48:43;;;;;;;1.13;1.10;;;;;;;;;;4997658;28;20238;-76
2023/08/02 04:51:11;;;;;;;1.85;1.10;;;;;;;;;;4997313;28;20214;-75
2023/08/02 04:53:38;;;;;;;1.52;1.45;;;;;;;;;;4997467;28;20562;-76
2023/08/02 04:56:09;;;;;;;1.50;1.50;;;;;;;;;;4997156;28;20585;-77
2023/08/02 04:58:36;;;;;;;1.60;1.50;;;;;;;;;;4997435;28;20257;-77
2023/08/02 05:01:04;;;;;;;1.92;1.88;;;;;;;;;;5000212;28;20210;-78
2023/08/02 05:03:31;;;;;;;1.33;1.33;;;;;;;;;;5000860;28;20203;-78
2023/08/02 05:06:00;;;;;;;1.98;1.88;;;;;;;;;;4998478;28;20585;-77
2023/08/02 05:08:30;;;;;;;1.80;1.70;;;;;;;;;;4997893;28;20571;-78
2023/08/02 05:10:57;;;;;;;1.95;1.85;;;;;;;;;;4997504;28;20207;-75
2023/08/02 05:13:24;;;;;;;1.35;1.25;;;;;;;;;;4997038;28;20228;-76
2023/08/02 05:15:51;;;;;;;1.85;1.65;;;;;;;;;;4997006;28;20226;-76
2023/08/02 05:18:19;;;;;;;1.30;1.30;;;;;;;;;;4997032;28;20199;-77
2023/08/02 05:20:46;;;;;;;1.42;1.42;;;;;;;;;;4997281;28;20205;-75
2023/08/02 05:23:14;;;;;;;1.80;1.70;;;;;;;;;;4996496;28;20293;-75
2023/08/02 05:25:43;;;;;;;1.67;1.67;;;;;;;;;;4997072;28;20203;-76
2023/08/02 05:28:10;;;;;;;1.30;1.30;;;;;;;;;;4996736;28;20210;-76
2023/08/02 05:30:38;;;;;;;1.52;1.50;;;;;;;;;;4996744;28;20203;-76
2023/08/02 05:33:06;;;;;;;1.60;1.50;;;;;;;;;;4996749;28;20214;-76
2023/08/02 05:35:36;;;;;;;1.50;1.40;;;;;;;;;;4996821;28;20207;-78
2023/08/02 05:38:04;;;;;;;1.30;1.30;;;;;;;;;;4996561;28;20202;-76
2023/08/02 05:40:33;;;;;;;1.40;1.40;;;;;;;;;;4996605;28;20273;-76
2023/08/02 05:43:00;;;;;;;1.80;1.80;;;;;;;;;;4995860;28;20262;-76
2023/08/02 05:45:27;;;;;;;1.33;1.30;;;;;;;;;;4996338;28;20206;-76
2023/08/02 05:47:54;;;;;;;1.58;1.58;;;;;;;;;;4996423;28;20206;-76
2023/08/02 05:50:21;;;;;;;1.60;1.60;;;;;;;;;;4996277;28;20226;-75
2023/08/02 05:52:48;;;;;;;1.73;1.63;;;;;;;;;;4996222;28;20704;-76
2023/08/02 05:55:15;;;;;;;1.25;1.25;;;;;;;;;;4996248;28;20199;-76
2023/08/02 05:57:44;;;;;;;1.27;1.17;;;;;;;;;;4996578;28;20222;-76
2023/08/02 06:00:12;;;;;;;1.25;1.25;;;;;;;;;;4995914;28;20625;-76
2023/08/02 06:02:39;;;;;;;1.40;1.40;;;;;;;;;;4996725;28;20206;-75
2023/08/02 06:05:06;;;;;;;1.40;1.40;;;;;;;;;;4995956;28;20554;-75
2023/08/02 06:07:33;;;;;;;1.40;1.40;;;;;;;;;;4996275;28;20199;-75
2023/08/02 06:10:02;;;;;;;1.40;1.40;;;;;;;;;;4996296;28;20305;-77
2023/08/02 06:12:29;;;;;;;1.50;1.50;;;;;;;;;;4996103;28;20203;-76
2023/08/02 06:14:57;;;;;;;2.03;1.92;;;;;;;;;;4995718;28;20209;-76
2023/08/02 06:17:26;;;;;;;1.63;1.58;;;;;;;;;;4996102;28;20226;-76
2023/08/02 06:19:53;;;;;;;3.08;2.00;;;;;;;;;;4996000;28;20253;-76
2023/08/02 06:22:20;;;;;;;2.00;1.90;;;;;;;;;;4995922;28;20212;-76
2023/08/02 06:24:47;;;;;;;1.90;1.83;;;;;;;;;;4995411;28;20565;-76
2023/08/02 06:27:14;;;;;;;2.17;1.98;;;;;;;;;;4995417;28;20218;-77
2023/08/02 06:29:41;;;;;;;2.20;2.10;;;;;;;;;;4995218;28;20567;-76
2023/08/02 06:32:10;;;;;;;2.85;2.65;;;;;;;;;;4995622;28;20225;-76
2023/08/02 06:34:37;;;;;;;2.92;2.72;;;;;;;;;;4995450;28;20214;-76
2023/08/02 06:37:04;;;;;;;2.60;2.50;;;;;;;;;;4995475;28;20253;-76
2023/08/02 06:39:33;;;;;;;2.83;2.72;;;;;;;;;;4995105;28;20568;-76
2023/08/02 06:42:00;;;;;;;3.17;2.92;;;;;;;;;;4995526;28;20198;-76
2023/08/02 06:44:27;;;;;;;5.18;3.83;;;;;;;;;;4995363;28;20206;-76
2023/08/02 06:46:54;;;;;;;4.00;3.70;;;;;;;;;;4995006;28;20670;-76
2023/08/02 06:49:22;;;;;;;3.42;3.22;;;;;;;;;;4995492;28;20238;-76
2023/08/02 06:51:49;;;;;;;3.78;3.58;;;;;;;;;;4995271;28;20217;-76
2023/08/02 06:54:16;;;;;;;3.55;3.35;;;;;;;;;;4995199;28;20203;-76
2023/08/02 06:56:43;;;;;;;3.60;3.40;;;;;;;;;;4995081;28;20219;-76
2023/08/02 06:59:10;;;;;;;4.07;3.78;;;;;;;;;;4995022;28;20229;-76
2023/08/02 07:01:37;;;;;;;3.83;3.63;;;;;;;;;;4995102;28;20207;-76
2023/08/02 07:04:05;;;;;;;3.20;2.97;;;;;;;;;;4994961;28;20207;-76
2023/08/02 07:06:33;;;;;;;3.60;3.40;;;;;;;;;;4995146;28;20203;-76
2023/08/02 07:09:00;;;;;;;3.92;3.63;;;;;;;;;;4994782;28;20230;-76
2023/08/02 07:11:27;;;;;;;3.85;3.30;;;;;;;;;;4994943;28;20211;-76
2023/08/02 07:13:54;;;;;;;3.20;3.00;;;;;;;;;;4994856;28;20217;-76
2023/08/02 07:16:21;;;;;;;3.53;3.22;;;;;;;;;;4994423;28;20590;-76
2023/08/02 07:18:48;;;;;;;2.75;2.65;;;;;;;;;;4994404;28;20594;-76
2023/08/02 07:21:15;;;;;;;3.47;3.30;;;;;;;;;;4994709;28;20199;-76
2023/08/02 07:23:44;;;;;;;2.85;2.75;;;;;;;;;;4994401;28;20630;-76
2023/08/02 07:26:11;;;;;;;9.02;3.67;;;;;;;;;;4994334;28;20667;-76
2023/08/02 07:28:38;;;;;;;4.18;3.42;;;;;;;;;;4994726;28;20615;-76
2023/08/02 07:31:08;;;;;;;4.13;3.78;;;;;;;;;;4994236;28;20702;-76
2023/08/02 07:33:35;;;;;;;4.53;4.22;;;;;;;;;;4994413;28;20214;-76
2023/08/02 07:36:02;;;;;;;3.97;3.70;;;;;;;;;;4994221;28;20202;-76
2023/08/02 07:38:30;;;;;;;3.80;3.60;;;;;;;;;;4994367;28;20222;-76
2023/08/02 07:40:58;;;;;;;3.58;3.38;;;;;;;;;;4994552;28;20229;-76
2023/08/02 07:43:25;;;;;;;3.78;3.42;;;;;;;;;;4994269;28;20640;-76
2023/08/02 07:45:52;;;;;;;3.88;3.67;;;;;;;;;;4994105;28;20569;-76
2023/08/02 07:48:19;;;;;;;3.75;3.55;;;;;;;;;;4994910;28;20225;-75
2023/08/02 07:50:46;;;;;;;4.75;4.35;;;;;;;;;;4995399;28;20283;-76
2023/08/02 07:53:13;;;;;;;4.07;3.88;;;;;;;;;;5005501;28;20197;-76
2023/08/02 07:55:42;;;;;;;3.70;3.50;;;;;;;;;;5004593;28;20206;-76
2023/08/02 07:58:10;;;;;;;3.30;3.10;;;;;;;;;;4994668;28;20756;-76
2023/08/02 08:00:37;;;;;;;4.70;4.25;;;;;;;;;;4994484;28;20203;-76
2023/08/02 08:03:04;;;;;;;3.90;3.70;;;;;;;;;;4994851;28;20615;-76
2023/08/02 08:05:32;;;;;;;4.13;3.92;;;;;;;;;;4994098;28;20574;-76
2023/08/02 08:07:59;;;;;;;3.35;3.15;;;;;;;;;;5000395;28;20558;-76
2023/08/02 08:10:27;;;;;;;3.63;3.35;;;;;;;;;;5002253;28;20226;-76
2023/08/02 08:12:54;;;;;;;4.45;4.05;;;;;;;;;;5004281;28;20205;-76
2023/08/02 08:15:22;;;;;;;4.88;4.57;;;;;;;;;;5002988;28;20209;-76
2023/08/02 08:17:49;;;;;;;4.57;4.28;;;;;;;;;;5001570;28;20226;-76
2023/08/02 08:20:16;;;;;;;3.78;3.58;;;;;;;;;;5001243;28;20222;-76
2023/08/02 08:22:44;;;;;;;3.78;3.58;;;;;;;;;;5001557;28;20293;-76
2023/08/02 08:25:11;;;;;;;3.80;3.60;;;;;;;;;;5000497;28;20210;-75
2023/08/02 08:27:38;;;;;;;3.90;3.60;;;;;;;;;;5000521;28;20202;-75
2023/08/02 08:30:05;;;;;;;4.55;4.15;;;;;;;;;;5000479;28;20233;-75
2023/08/02 08:32:34;;;;;;;5.00;4.65;;;;;;;;;;5000910;28;20214;-75
2023/08/02 08:35:01;;;;;;;3.88;3.67;;;;;;;;;;5000360;28;20217;-75
2023/08/02 08:37:28;;;;;;;3.30;3.10;;;;;;;;;;5000246;28;20222;-75
2023/08/02 08:39:56;;;;;;;3.17;2.97;;;;;;;;;;5000142;28;20226;-75
2023/08/02 08:42:23;;;;;;;3.25;3.05;;;;;;;;;;5000238;28;20202;-75
2023/08/02 08:44:50;;;;;;;3.17;2.97;;;;;;;;;;5000198;28;20224;-75
2023/08/02 08:47:18;;;;;;;3.78;3.58;;;;;;;;;;5000205;28;20209;-75
2023/08/02 08:49:47;;;;;;;3.70;3.40;;;;;;;;;;4999796;28;20241;-75
2023/08/02 08:52:16;;;;;;;3.45;3.15;;;;;;;;;;4999929;28;20221;-76
2023/08/02 08:54:45;;;;;;;4.70;4.32;;;;;;;;;;5000032;28;20676;-75
2023/08/02 08:57:12;;;;;;;4.28;3.97;;;;;;;;;;4999920;28;20218;-75
2023/08/02 08:59:40;;;;;;;4.93;4.53;;;;;;;;;;5000932;28;20226;-75
2023/08/02 09:02:08;;;;;;;4.15;3.85;;;;;;;;;;5001341;28;20210;-75
2023/08/02 09:04:35;;;;;;;4.07;3.78;;;;;;;;;;5000249;28;20233;-75
2023/08/02 09:07:04;;;;;;;3.72;3.53;;;;;;;;;;5000852;28;20202;-75
2023/08/02 09:09:31;;;;;;;3.80;3.60;;;;;;;;;;5000150;28;20229;-75
2023/08/02 09:11:59;;;;;;;4.28;3.97;;;;;;;;;;5000216;28;20202;-75
2023/08/02 09:14:26;;;;;;;3.63;3.42;;;;;;;;;;4999952;28;20206;-75
2023/08/02 09:16:57;;;;;;;3.95;3.65;;;;;;;;;;5000114;28;20209;-76
2023/08/02 09:19:24;;;;;;;3.67;3.42;;;;;;;;;;4995920;28;20222;-75
2023/08/02 09:22:11;;;;;;;5.10;4.75;;;;;;;;;;4996802;28;20202;-75
2023/08/02 09:24:39;;;;;;;5.38;4.70;;;;;;;;;;4996445;28;20190;-75
2023/08/02 09:27:06;;;;;;;5.35;4.93;;;;;;;;;;4996597;28;20202;-75
2023/08/02 09:29:44;;;;;;;5.00;4.43;;;;;;;;;;5019773;23;20225;-74
2023/08/02 09:32:11;;;;;;;5.22;4.72;;;;;;;;;;4996730;28;20256;-74
2023/08/02 09:34:48;;;;;;;4.95;4.57;;;;;;;;;;4996680;28;20202;-74
2023/08/02 09:37:17;;;;;;;5.00;4.57;;;;;;;;;;4996465;28;20673;-74
2023/08/02 09:39:51;;;;;;;4.15;3.85;;;;;;;;;;4996696;28;20222;-74
2023/08/02 09:42:20;;;;;;;4.55;4.25;;;;;;;;;;4996661;28;20208;-74
2023/08/02 09:44:54;;;;;;;4.18;3.97;;;;;;;;;;4996525;28;20214;-75
2023/08/02 09:47:21;;;;;;;3.90;3.70;;;;;;;;;;4996503;28;20206;-75
2023/08/02 09:50:03;;;;;;;3.88;3.58;;;;;;;;;;4996301;28;20229;-75
2023/08/02 09:52:31;;;;;;;2.95;2.78;;;;;;;;;;4996586;28;20186;-75
2023/08/02 09:54:59;;;;;;;4.80;4.40;;;;;;;;;;4996530;28;20206;-74
2023/08/02 09:57:27;;;;;;;4.45;4.15;;;;;;;;;;4995806;28;20233;-74
2023/08/02 09:59:55;;;;;;;4.50;4.20;;;;;;;;;;4996355;28;20233;-74
2023/08/02 10:02:23;;;;;;;3.55;3.45;;;;;;;;;;4996216;28;20202;-74
2023/08/02 10:04:51;;;;;;;3.85;3.55;;;;;;;;;;4996348;28;20217;-75
2023/08/02 10:07:18;;;;;;;4.00;3.78;;;;;;;;;;4996126;28;20209;-75
2023/08/02 10:09:47;;;;;;;4.93;3.78;;;;;;;;;;4995943;28;20245;-75
2023/08/02 10:12:16;;;;;;;3.70;3.50;;;;;;;;;;4996210;28;20209;-75
2023/08/02 10:14:43;;;;;;;3.53;3.33;;;;;;;;;;4996553;28;20209;-75
2023/08/02 10:17:10;;;;;;;3.90;3.60;;;;;;;;;;4996273;28;20206;-75
2023/08/02 10:19:38;;;;;;;3.15;3.05;;;;;;;;;;4995692;28;20222;-74
2023/08/02 10:22:05;;;;;;;3.38;3.20;;;;;;;;;;4995837;28;20198;-74
2023/08/02 10:24:32;;;;;;;3.42;3.22;;;;;;;;;;4995790;28;20202;-74
2023/08/02 10:27:03;;;;;;;3.55;3.35;;;;;;;;;;4995834;28;20250;-74
2023/08/02 10:29:31;;;;;;;2.90;2.80;;;;;;;;;;4995334;28;20236;-74
2023/08/02 10:31:58;;;;;;;5.00;3.10;;;;;;;;;;4995599;28;20268;-74
2023/08/02 10:34:59;;;;;;;3.08;2.92;;;;;;;;;;4995574;28;20207;-74
2023/08/02 10:37:46;;;;;;;3.47;3.15;;;;;;;;;;4954424;29;20213;-75
2023/08/02 10:40:13;;;;;;;2.50;2.40;;;;;;;;;;4954270;29;20737;-74
2023/08/02 10:43:02;;;;;;;2.80;2.70;;;;;;;;;;4978769;28;20206;-74
2023/08/02 10:45:29;;;;;;;2.83;2.70;;;;;;;;;;4995424;28;20217;-75
2023/08/02 10:48:23;;;;;;;2.92;2.72;;;;;;;;;;4995530;28;20213;-75
2023/08/02 10:50:51;;;;;;;3.03;2.83;;;;;;;;;;4995885;28;20733;-74
2023/08/02 10:53:18;;;;;;;3.10;2.90;;;;;;;;;;4996061;28;20573;-75
2023/08/02 10:56:00;;;;;;;2.60;2.50;;;;;;;;;;4996077;28;20569;-75
2023/08/02 10:58:27;;;;;;;2.63;2.50;;;;;;;;;;4994291;28;20233;-74
2023/08/02 11:01:09;;;;;;;3.05;2.85;;;;;;;;;;4996018;28;20222;-77
2023/08/02 11:03:37;;;;;;;3.00;2.60;;;;;;;;;;4995719;28;20190;-75
2023/08/02 11:06:06;;;;;;;2.92;2.72;;;;;;;;;;4995757;28;20210;-74
2023/08/02 11:08:46;;;;;;;2.53;2.42;;;;;;;;;;4995793;28;20205;-74
2023/08/02 11:11:13;;;;;;;2.80;2.60;;;;;;;;;;4994890;28;20218;-73
2023/08/02 11:13:41;;;;;;;2.33;2.22;;;;;;;;;;4994785;28;20206;-73
2023/08/02 11:16:09;;;;;;;2.97;2.67;;;;;;;;;;4994851;28;20202;-75
2023/08/02 11:18:36;;;;;;;2.35;2.17;;;;;;;;;;4994805;28;20221;-74
2023/08/02 11:21:14;;;;;;;2.50;2.40;;;;;;;;;;4994443;28;20732;-74
2023/08/02 11:23:41;;;;;;;1.90;1.80;;;;;;;;;;4994428;28;20665;-73
2023/08/02 11:26:09;;;;;;;2.28;2.17;;;;;;;;;;4994981;28;20213;-74
2023/08/02 11:28:39;;;;;;;2.00;1.90;;;;;;;;;;4994693;28;20194;-74
2023/08/02 11:31:06;;;;;;;2.22;2.13;;;;;;;;;;4994393;28;20233;-73
2023/08/02 11:33:34;;;;;;;2.20;2.10;;;;;;;;;;4994230;28;20695;-74
2023/08/02 11:36:01;;;;;;;2.55;2.45;;;;;;;;;;4994460;28;20232;-74
2023/08/02 11:38:30;;;;;;;2.33;2.25;;;;;;;;;;4994030;28;20566;-74
2023/08/02 11:40:58;;;;;;;2.60;2.40;;;;;;;;;;4993936;28;20222;-74
2023/08/02 11:43:34;;;;;;;2.50;2.40;;;;;;;;;;4994273;28;20213;-70
2023/08/02 11:46:01;;;;;;;2.40;2.30;;;;;;;;;;4994475;28;20565;-70
2023/08/02 11:48:28;;;;;;;2.55;2.35;;;;;;;;;;4994429;28;20282;-70
2023/08/02 11:50:56;;;;;;;2.10;2.00;;;;;;;;;;4994202;28;20230;-70
2023/08/02 11:53:23;;;;;;;2.17;2.08;;;;;;;;;;4994412;28;20569;-70
2023/08/02 11:55:51;;;;;;;2.30;2.20;;;;;;;;;;4994320;28;20205;-70
2023/08/02 11:58:18;;;;;;;1.70;1.67;;;;;;;;;;4994232;28;20226;-70
2023/08/02 12:00:45;;;;;;;1.98;1.92;;;;;;;;;;4994175;28;20237;-70
2023/08/02 12:03:13;;;;;;;2.10;2.00;;;;;;;;;;4994105;28;20202;-70
2023/08/02 12:05:41;;;;;;;2.20;2.00;;;;;;;;;;4994010;28;20265;-70
2023/08/02 12:08:10;;;;;;;2.28;2.17;;;;;;;;;;4994310;28;20182;-70
2023/08/02 12:10:38;;;;;;;1.90;1.90;;;;;;;;;;4993903;28;20225;-69
2023/08/02 12:13:09;;;;;;;2.30;2.20;;;;;;;;;;4993990;28;20202;-69
2023/08/02 12:15:37;;;;;;;2.17;2.08;;;;;;;;;;4993701;28;20183;-69
2023/08/02 12:18:04;;;;;;;2.30;2.20;;;;;;;;;;4993973;28;20577;-69
2023/08/02 12:20:32;;;;;;;2.20;2.10;;;;;;;;;;4993919;28;20218;-69
2023/08/02 12:22:59;;;;;;;2.33;2.20;;;;;;;;;;4993638;28;20297;-69
2023/08/02 12:25:26;;;;;;;2.22;2.13;;;;;;;;;;4993964;28;20230;-69
2023/08/02 12:28:06;;;;;;;2.15;2.05;;;;;;;;;;4993946;28;20202;-69
2023/08/02 12:30:35;;;;;;;2.30;2.20;;;;;;;;;;4993857;28;20238;-69
2023/08/02 12:33:02;;;;;;;2.53;2.33;;;;;;;;;;4993865;28;20206;-69
2023/08/02 12:35:29;;;;;;;2.67;2.58;;;;;;;;;;4993825;28;20214;-69
2023/08/02 12:37:56;;;;;;;1.75;1.75;;;;;;;;;;4993987;28;20202;-69
2023/08/02 12:40:23;;;;;;;2.33;2.22;;;;;;;;;;4993786;28;20229;-69
2023/08/02 12:42:50;;;;;;;2.22;2.13;;;;;;;;;;4993762;28;20206;-69
2023/08/02 12:45:17;;;;;;;2.78;2.35;;;;;;;;;;4993868;28;20321;-69
2023/08/02 12:47:45;;;;;;;1.85;1.80;;;;;;;;;;4993724;28;20237;-69
2023/08/02 12:50:13;;;;;;;2.55;2.45;;;;;;;;;;4993671;28;20222;-69
2023/08/02 12:52:40;;;;;;;2.53;2.38;;;;;;;;;;4994585;28;20281;-69
2023/08/02 12:55:07;;;;;;;2.00;1.95;;;;;;;;;;4997427;28;20210;-69
2023/08/02 12:57:34;;;;;;;4.25;2.70;;;;;;;;;;4997512;28;20217;-69
2023/08/02 13:00:01;;;;;;;2.70;2.50;;;;;;;;;;4997274;28;20226;-70
2023/08/02 13:02:29;;;;;;;2.70;2.50;;;;;;;;;;4997381;28;20194;-70
2023/08/02 13:04:57;;;;;;;2.30;2.20;;;;;;;;;;4997198;28;20206;-70
2023/08/02 13:07:24;;;;;;;2.33;2.22;;;;;;;;;;4997221;28;20709;-70
2023/08/02 13:09:51;;;;;;;2.30;2.20;;;;;;;;;;4997511;28;20279;-70
2023/08/02 13:12:18;;;;;;;2.80;2.60;;;;;;;;;;4996796;28;20206;-70
2023/08/02 13:14:45;;;;;;;2.42;2.33;;;;;;;;;;4997584;28;20214;-69
2023/08/02 13:17:13;;;;;;;2.53;2.33;;;;;;;;;;4997320;28;20202;-69
2023/08/02 13:19:40;;;;;;;2.30;2.20;;;;;;;;;;4997062;28;20281;-69
2023/08/02 13:22:09;;;;;;;2.80;2.60;;;;;;;;;;4997364;28;20545;-71
2023/08/02 13:24:36;;;;;;;2.50;2.40;;;;;;;;;;4996681;28;20203;-70
2023/08/02 13:27:03;;;;;;;2.42;2.30;;;;;;;;;;4996552;28;20198;-70
2023/08/02 13:29:30;;;;;;;2.60;2.40;;;;;;;;;;4996687;28;20230;-70
2023/08/02 13:31:57;;;;;;;1.58;1.58;;;;;;;;;;4996872;28;20197;-70
2023/08/02 13:34:24;;;;;;;2.28;2.17;;;;;;;;;;4996768;28;20217;-70
2023/08/02 13:36:51;;;;;;;2.33;2.22;;;;;;;;;;4996709;28;20214;-71
2023/08/02 13:39:20;;;;;;;2.30;2.20;;;;;;;;;;4996523;28;20237;-71
2023/08/02 13:41:47;;;;;;;2.10;2.00;;;;;;;;;;4996443;28;20673;-71
2023/08/02 13:44:16;;;;;;;2.38;2.17;;;;;;;;;;4996601;28;20206;-71
2023/08/02 13:46:43;;;;;;;2.20;2.10;;;;;;;;;;4996573;28;20207;-70
2023/08/02 13:49:11;;;;;;;1.98;1.90;;;;;;;;;;4996655;28;20222;-70
2023/08/02 13:51:38;;;;;;;1.70;1.70;;;;;;;;;;4997208;28;20203;-69
2023/08/02 13:54:06;;;;;;;2.00;1.90;;;;;;;;;;4996279;28;20202;-69
2023/08/02 13:56:34;;;;;;;1.70;1.60;;;;;;;;;;5002498;28;20213;-69
2023/08/02 13:59:01;;;;;;;1.88;1.77;;;;;;;;;;5004824;28;20277;-69
2023/08/02 14:01:28;;;;;;;2.13;2.03;;;;;;;;;;5001880;28;20214;-69
2023/08/02 14:03:56;;;;;;;2.03;1.92;;;;;;;;;;4995763;28;20202;-69
2023/08/02 14:06:23;;;;;;;1.70;1.60;;;;;;;;;;4995737;28;20634;-70
2023/08/02 14:08:53;;;;;;;2.00;1.90;;;;;;;;;;4996176;28;20566;-68
2023/08/02 14:11:20;;;;;;;2.30;2.20;;;;;;;;;;4996028;28;20202;-68
2023/08/02 14:13:48;;;;;;;2.00;1.90;;;;;;;;;;4995950;28;20202;-68
2023/08/02 14:16:15;;;;;;;1.67;1.60;;;;;;;;;;4995588;28;20213;-68
2023/08/02 14:18:42;;;;;;;1.90;1.80;;;;;;;;;;4996015;28;20222;-69
2023/08/02 14:21:09;;;;;;;1.95;1.85;;;;;;;;;;4995857;28;20228;-69
2023/08/02 14:23:36;;;;;;;2.00;1.90;;;;;;;;;;4995745;28;20207;-69
2023/08/02 14:26:03;;;;;;;1.70;1.70;;;;;;;;;;4995734;28;20209;-69
2023/08/02 14:28:30;;;;;;;2.15;2.05;;;;;;;;;;4995498;28;20701;-69
2023/08/02 14:31:00;;;;;;;1.48;1.48;;;;;;;;;;4995171;28;20244;-69
2023/08/02 14:33:27;;;;;;;1.95;1.85;;;;;;;;;;4995273;28;20609;-69
2023/08/02 14:35:54;;;;;;;1.92;1.90;;;;;;;;;;4995256;28;20285;-69
2023/08/02 14:38:21;;;;;;;1.75;1.75;;;;;;;;;;4995411;28;20222;-69
2023/08/02 14:40:48;;;;;;;1.67;1.60;;;;;;;;;;4995614;28;20226;-69
2023/08/02 14:43:15;;;;;;;1.45;1.45;;;;;;;;;;4995377;28;20206;-69
2023/08/02 14:45:42;;;;;;;1.92;1.83;;;;;;;;;;4995296;28;20202;-69
2023/08/02 14:48:11;;;;;;;1.60;1.60;;;;;;;;;;4995445;28;20202;-69